Overview Statistics Trail Chart Weather Telemetry Raw packets
 

This is the latest recevied weather packets stored in our database for station/object S56OA-13. If no packets are shown the sender has not sent any weather packets the latest 10 day(s).

<< 12 13 14 15 16 17 18 >>
Time Temp. Humidity Pressure Rain* Wind** Luminosity Snow
1788037914 15° C 43% 862 hPa - - - -
1788036114 15.56° C 43% 863.3 hPa - - - -
1788032511 16.67° C 43% 866.7 hPa - - - -
1788030711 17.22° C 43% 867.4 hPa - - - -
1788028910 17.78° C 44% 869 hPa - - - -
1788027108 18.89° C 45% 873.5 hPa - - - -
1788025307 23.89° C 44% 890 hPa - - - -
1788023505 28.89° C 43% 912.2 hPa - - - -
1788019903 33.33° C 41% 928.1 hPa - - - -
1788018101 27.78° C 42% 908.5 hPa - - - -
1788016300 27.78° C 41% 906.9 hPa - - - -
1788014499 24.44° C 43% 892.9 hPa - - - -
1788012697 25° C 45% 897 hPa - - - -
1788010896 28.89° C 44% 910.1 hPa - - - -
1788009095 32.22° C 43% 926.4 hPa - - - -
1788007294 35° C 42% 934.8 hPa - - - -
1788005493 31.11° C 43% 919.6 hPa - - - -
1788003661 31.11° C 42% 920.4 hPa - - - -
1788001841 27.22° C 43% 902.9 hPa - - - -
1788000040 31.11° C 42% 919.1 hPa - - - -
1787998239 27.22° C 43% 905.7 hPa - - - -
1787996437 30° C 42% 911.7 hPa - - - -
1787994636 29.44° C 41% 909.6 hPa - - - -
1787992835 29.44° C 41% 909.3 hPa - - - -
1787991033 26.11° C 42% 900.3 hPa - - - -

* Rain since midnight (hover to see other rain measurements)
** Current wind speed in m/s (hover to see current wind gust speed)